sensor_id;sensor_type;location;lat;lon;timestamp;temperature;humidity
12655;DHT22;6392;44.644;11.448;2024-02-26T00:01:04;8.20;99.90
12655;DHT22;6392;44.644;11.448;2024-02-26T00:03:33;8.30;99.90
12655;DHT22;6392;44.644;11.448;2024-02-26T00:06:01;8.30;99.90
12655;DHT22;6392;44.644;11.448;2024-02-26T00:08:29;8.30;99.90
12655;DHT22;6392;44.644;11.448;2024-02-26T00:10:56;8.20;99.90
12655;DHT22;6392;44.644;11.448;2024-02-26T00:13:23;8.20;99.90
12655;DHT22;6392;44.644;11.448;2024-02-26T00:15:50;8.20;99.90
12655;DHT22;6392;44.644;11.448;2024-02-26T00:18:17;8.10;99.90
12655;DHT22;6392;44.644;11.448;2024-02-26T00:20:45;8.10;99.90
12655;DHT22;6392;44.644;11.448;2024-02-26T00:23:15;8.10;99.90
12655;DHT22;6392;44.644;11.448;2024-02-26T00:25:42;8.00;99.90
12655;DHT22;6392;44.644;11.448;2024-02-26T00:28:10;7.90;99.90
12655;DHT22;6392;44.644;11.448;2024-02-26T00:30:39;7.90;99.90
12655;DHT22;6392;44.644;11.448;2024-02-26T00:33:06;7.90;99.90
12655;DHT22;6392;44.644;11.448;2024-02-26T00:35:33;7.90;99.90
12655;DHT22;6392;44.644;11.448;2024-02-26T00:38:01;7.90;99.90
12655;DHT22;6392;44.644;11.448;2024-02-26T00:40:29;7.90;99.90
12655;DHT22;6392;44.644;11.448;2024-02-26T00:42:56;7.90;99.90
12655;DHT22;6392;44.644;11.448;2024-02-26T00:45:23;7.90;99.90
12655;DHT22;6392;44.644;11.448;2024-02-26T00:47:50;7.90;99.90
12655;DHT22;6392;44.644;11.448;2024-02-26T00:50:17;7.90;99.90
12655;DHT22;6392;44.644;11.448;2024-02-26T00:52:44;7.90;99.90
12655;DHT22;6392;44.644;11.448;2024-02-26T00:55:13;7.90;99.90
12655;DHT22;6392;44.644;11.448;2024-02-26T00:57:40;7.90;99.90
12655;DHT22;6392;44.644;11.448;2024-02-26T01:00:08;7.90;99.90
12655;DHT22;6392;44.644;11.448;2024-02-26T01:02:35;7.90;99.90
12655;DHT22;6392;44.644;11.448;2024-02-26T01:05:02;7.90;99.90
12655;DHT22;6392;44.644;11.448;2024-02-26T01:07:29;7.90;99.90
12655;DHT22;6392;44.644;11.448;2024-02-26T01:10:01;7.80;99.90
12655;DHT22;6392;44.644;11.448;2024-02-26T01:12:29;7.90;99.90
12655;DHT22;6392;44.644;11.448;2024-02-26T01:14:56;7.90;99.90
12655;DHT22;6392;44.644;11.448;2024-02-26T01:17:24;7.80;99.90
12655;DHT22;6392;44.644;11.448;2024-02-26T01:19:50;7.80;99.90
12655;DHT22;6392;44.644;11.448;2024-02-26T01:22:19;7.80;99.90
12655;DHT22;6392;44.644;11.448;2024-02-26T01:24:46;7.90;99.90
12655;DHT22;6392;44.644;11.448;2024-02-26T01:27:13;7.90;99.90
12655;DHT22;6392;44.644;11.448;2024-02-26T01:29:42;8.00;99.90
12655;DHT22;6392;44.644;11.448;2024-02-26T01:32:09;8.00;99.90
12655;DHT22;6392;44.644;11.448;2024-02-26T01:34:36;8.00;99.90
12655;DHT22;6392;44.644;11.448;2024-02-26T01:37:03;8.10;99.90
12655;DHT22;6392;44.644;11.448;2024-02-26T01:39:30;8.10;99.90
12655;DHT22;6392;44.644;11.448;2024-02-26T01:41:57;8.10;99.90
12655;DHT22;6392;44.644;11.448;2024-02-26T01:44:26;8.00;99.90
12655;DHT22;6392;44.644;11.448;2024-02-26T01:46:54;8.00;99.90
12655;DHT22;6392;44.644;11.448;2024-02-26T01:49:22;7.90;99.90
12655;DHT22;6392;44.644;11.448;2024-02-26T01:51:49;7.90;99.90
12655;DHT22;6392;44.644;11.448;2024-02-26T01:54:16;7.90;99.90
12655;DHT22;6392;44.644;11.448;2024-02-26T01:56:43;7.90;99.90
12655;DHT22;6392;44.644;11.448;2024-02-26T01:59:10;8.00;99.90
12655;DHT22;6392;44.644;11.448;2024-02-26T02:01:39;8.10;99.90
12655;DHT22;6392;44.644;11.448;2024-02-26T02:04:12;8.10;99.90
12655;DHT22;6392;44.644;11.448;2024-02-26T02:06:41;8.20;99.90
12655;DHT22;6392;44.644;11.448;2024-02-26T02:09:08;8.20;99.90
12655;DHT22;6392;44.644;11.448;2024-02-26T02:11:35;8.10;99.90
12655;DHT22;6392;44.644;11.448;2024-02-26T02:14:02;8.10;99.90
12655;DHT22;6392;44.644;11.448;2024-02-26T02:16:29;8.10;99.90
12655;DHT22;6392;44.644;11.448;2024-02-26T02:18:57;8.10;99.90
12655;DHT22;6392;44.644;11.448;2024-02-26T02:21:26;8.10;99.90
12655;DHT22;6392;44.644;11.448;2024-02-26T02:23:53;8.10;99.90
12655;DHT22;6392;44.644;11.448;2024-02-26T02:26:20;8.10;99.90
12655;DHT22;6392;44.644;11.448;2024-02-26T02:28:47;8.10;99.90
12655;DHT22;6392;44.644;11.448;2024-02-26T02:31:15;8.10;99.90
12655;DHT22;6392;44.644;11.448;2024-02-26T02:33:43;8.10;99.90
12655;DHT22;6392;44.644;11.448;2024-02-26T02:36:10;8.00;99.90
12655;DHT22;6392;44.644;11.448;2024-02-26T02:38:41;7.90;99.90
12655;DHT22;6392;44.644;11.448;2024-02-26T02:41:14;7.90;99.90
12655;DHT22;6392;44.644;11.448;2024-02-26T02:43:41;7.80;99.90
12655;DHT22;6392;44.644;11.448;2024-02-26T02:46:09;7.90;99.90
12655;DHT22;6392;44.644;11.448;2024-02-26T02:48:37;7.90;99.90
12655;DHT22;6392;44.644;11.448;2024-02-26T02:51:04;7.90;99.90
12655;DHT22;6392;44.644;11.448;2024-02-26T02:53:31;7.90;99.90
12655;DHT22;6392;44.644;11.448;2024-02-26T02:56:00;7.90;99.90
12655;DHT22;6392;44.644;11.448;2024-02-26T02:58:27;7.90;99.90
12655;DHT22;6392;44.644;11.448;2024-02-26T03:00:54;7.90;99.90
12655;DHT22;6392;44.644;11.448;2024-02-26T03:03:21;7.90;99.90
12655;DHT22;6392;44.644;11.448;2024-02-26T03:05:49;7.90;99.90
12655;DHT22;6392;44.644;11.448;2024-02-26T03:08:17;7.90;99.90
12655;DHT22;6392;44.644;11.448;2024-02-26T03:10:46;7.90;99.90
12655;DHT22;6392;44.644;11.448;2024-02-26T03:13:14;7.90;99.90
12655;DHT22;6392;44.644;11.448;2024-02-26T03:15:42;7.90;99.90
12655;DHT22;6392;44.644;11.448;2024-02-26T03:18:09;7.90;99.90
12655;DHT22;6392;44.644;11.448;2024-02-26T03:20:36;7.90;99.90
12655;DHT22;6392;44.644;11.448;2024-02-26T03:23:03;7.90;99.90
12655;DHT22;6392;44.644;11.448;2024-02-26T03:25:30;7.90;99.90
12655;DHT22;6392;44.644;11.448;2024-02-26T03:27:57;7.90;99.90
12655;DHT22;6392;44.644;11.448;2024-02-26T03:30:26;7.90;99.90
12655;DHT22;6392;44.644;11.448;2024-02-26T03:32:53;7.90;99.90
12655;DHT22;6392;44.644;11.448;2024-02-26T03:35:20;7.90;99.90
12655;DHT22;6392;44.644;11.448;2024-02-26T03:37:47;7.90;99.90
12655;DHT22;6392;44.644;11.448;2024-02-26T03:40:16;7.90;99.90
12655;DHT22;6392;44.644;11.448;2024-02-26T03:42:45;8.00;99.90
12655;DHT22;6392;44.644;11.448;2024-02-26T03:45:12;8.00;99.90
12655;DHT22;6392;44.644;11.448;2024-02-26T03:47:40;8.00;99.90
12655;DHT22;6392;44.644;11.448;2024-02-26T03:50:08;8.10;99.90
12655;DHT22;6392;44.644;11.448;2024-02-26T03:52:35;8.00;99.90
12655;DHT22;6392;44.644;11.448;2024-02-26T03:55:02;8.00;99.90
12655;DHT22;6392;44.644;11.448;2024-02-26T03:57:29;8.00;99.90
12655;DHT22;6392;44.644;11.448;2024-02-26T03:59:56;8.00;99.90
12655;DHT22;6392;44.644;11.448;2024-02-26T04:02:23;8.00;99.90
12655;DHT22;6392;44.644;11.448;2024-02-26T04:04:52;8.00;99.90
12655;DHT22;6392;44.644;11.448;2024-02-26T04:07:19;8.00;99.90
12655;DHT22;6392;44.644;11.448;2024-02-26T04:09:46;8.00;99.90
12655;DHT22;6392;44.644;11.448;2024-02-26T04:12:13;8.00;99.90
12655;DHT22;6392;44.644;11.448;2024-02-26T04:14:40;8.00;99.90
12655;DHT22;6392;44.644;11.448;2024-02-26T04:17:07;8.00;99.90
12655;DHT22;6392;44.644;11.448;2024-02-26T04:19:34;8.00;99.90
12655;DHT22;6392;44.644;11.448;2024-02-26T04:22:03;7.90;99.90
12655;DHT22;6392;44.644;11.448;2024-02-26T04:24:30;7.90;99.90
12655;DHT22;6392;44.644;11.448;2024-02-26T04:26:57;7.90;99.90
12655;DHT22;6392;44.644;11.448;2024-02-26T04:29:24;7.90;99.90
12655;DHT22;6392;44.644;11.448;2024-02-26T04:31:51;7.90;99.90
12655;DHT22;6392;44.644;11.448;2024-02-26T04:34:18;7.90;99.90
12655;DHT22;6392;44.644;11.448;2024-02-26T04:36:45;7.90;99.90
12655;DHT22;6392;44.644;11.448;2024-02-26T04:39:15;8.00;99.90
12655;DHT22;6392;44.644;11.448;2024-02-26T04:41:42;7.90;99.90
12655;DHT22;6392;44.644;11.448;2024-02-26T04:44:09;7.90;99.90
12655;DHT22;6392;44.644;11.448;2024-02-26T04:46:36;8.00;99.90
12655;DHT22;6392;44.644;11.448;2024-02-26T04:49:03;7.90;99.90
12655;DHT22;6392;44.644;11.448;2024-02-26T04:51:30;7.90;99.90
12655;DHT22;6392;44.644;11.448;2024-02-26T04:53:57;7.90;99.90
12655;DHT22;6392;44.644;11.448;2024-02-26T04:56:26;7.90;99.90
12655;DHT22;6392;44.644;11.448;2024-02-26T04:58:53;7.80;99.90
12655;DHT22;6392;44.644;11.448;2024-02-26T05:01:20;7.80;99.90
12655;DHT22;6392;44.644;11.448;2024-02-26T05:03:47;7.80;99.90
12655;DHT22;6392;44.644;11.448;2024-02-26T05:06:14;7.80;99.90
12655;DHT22;6392;44.644;11.448;2024-02-26T05:08:41;7.80;99.90
12655;DHT22;6392;44.644;11.448;2024-02-26T05:11:09;7.80;99.90
12655;DHT22;6392;44.644;11.448;2024-02-26T05:13:38;7.80;99.90
12655;DHT22;6392;44.644;11.448;2024-02-26T05:16:05;7.80;99.90
12655;DHT22;6392;44.644;11.448;2024-02-26T05:18:32;7.80;99.90
12655;DHT22;6392;44.644;11.448;2024-02-26T05:20:59;7.90;99.90
12655;DHT22;6392;44.644;11.448;2024-02-26T05:23:27;7.90;99.90
12655;DHT22;6392;44.644;11.448;2024-02-26T05:25:54;8.00;99.90
12655;DHT22;6392;44.644;11.448;2024-02-26T05:28:21;8.00;99.90
12655;DHT22;6392;44.644;11.448;2024-02-26T05:30:49;7.90;99.90
12655;DHT22;6392;44.644;11.448;2024-02-26T05:33:16;7.90;99.90
12655;DHT22;6392;44.644;11.448;2024-02-26T05:35:43;7.90;99.90
12655;DHT22;6392;44.644;11.448;2024-02-26T05:38:10;7.90;99.90
12655;DHT22;6392;44.644;11.448;2024-02-26T05:40:38;7.90;99.90
12655;DHT22;6392;44.644;11.448;2024-02-26T05:43:05;7.90;99.90
12655;DHT22;6392;44.644;11.448;2024-02-26T05:45:32;7.90;99.90
12655;DHT22;6392;44.644;11.448;2024-02-26T05:48:01;7.80;99.90
12655;DHT22;6392;44.644;11.448;2024-02-26T05:50:28;7.80;99.90
12655;DHT22;6392;44.644;11.448;2024-02-26T05:52:55;7.80;99.90
12655;DHT22;6392;44.644;11.448;2024-02-26T05:55:22;7.90;99.90
12655;DHT22;6392;44.644;11.448;2024-02-26T05:57:49;7.90;99.90
12655;DHT22;6392;44.644;11.448;2024-02-26T06:00:17;7.90;99.90
12655;DHT22;6392;44.644;11.448;2024-02-26T06:02:44;7.90;99.90
12655;DHT22;6392;44.644;11.448;2024-02-26T06:05:12;7.90;99.90
12655;DHT22;6392;44.644;11.448;2024-02-26T06:07:39;7.90;99.90
12655;DHT22;6392;44.644;11.448;2024-02-26T06:10:07;7.90;99.90
12655;DHT22;6392;44.644;11.448;2024-02-26T06:12:35;7.90;99.90
12655;DHT22;6392;44.644;11.448;2024-02-26T06:15:02;7.90;99.90
12655;DHT22;6392;44.644;11.448;2024-02-26T06:17:30;7.90;99.90
12655;DHT22;6392;44.644;11.448;2024-02-26T06:19:57;7.90;99.90
12655;DHT22;6392;44.644;11.448;2024-02-26T06:22:26;7.90;99.90
12655;DHT22;6392;44.644;11.448;2024-02-26T06:24:53;8.00;99.90
12655;DHT22;6392;44.644;11.448;2024-02-26T06:27:20;8.00;99.90
12655;DHT22;6392;44.644;11.448;2024-02-26T06:29:47;8.00;99.90
12655;DHT22;6392;44.644;11.448;2024-02-26T06:32:14;8.00;99.90
12655;DHT22;6392;44.644;11.448;2024-02-26T06:34:42;8.00;99.90
12655;DHT22;6392;44.644;11.448;2024-02-26T06:37:09;8.10;99.90
12655;DHT22;6392;44.644;11.448;2024-02-26T06:39:37;8.10;99.90
12655;DHT22;6392;44.644;11.448;2024-02-26T06:42:05;8.10;99.90
12655;DHT22;6392;44.644;11.448;2024-02-26T06:44:33;8.10;99.90
12655;DHT22;6392;44.644;11.448;2024-02-26T06:47:00;8.10;99.90
12655;DHT22;6392;44.644;11.448;2024-02-26T06:49:27;8.20;99.90
12655;DHT22;6392;44.644;11.448;2024-02-26T06:51:55;8.20;99.90
12655;DHT22;6392;44.644;11.448;2024-02-26T06:54:22;8.20;99.90
12655;DHT22;6392;44.644;11.448;2024-02-26T06:56:50;8.20;99.90
12655;DHT22;6392;44.644;11.448;2024-02-26T06:59:17;8.20;99.90
12655;DHT22;6392;44.644;11.448;2024-02-26T07:01:45;8.30;99.90
12655;DHT22;6392;44.644;11.448;2024-02-26T07:04:12;8.30;99.90
12655;DHT22;6392;44.644;11.448;2024-02-26T07:06:39;8.30;99.90
12655;DHT22;6392;44.644;11.448;2024-02-26T07:09:07;8.30;99.90
12655;DHT22;6392;44.644;11.448;2024-02-26T07:11:34;8.30;99.90
12655;DHT22;6392;44.644;11.448;2024-02-26T07:14:02;8.40;99.90
12655;DHT22;6392;44.644;11.448;2024-02-26T07:16:29;8.40;99.90
12655;DHT22;6392;44.644;11.448;2024-02-26T07:18:57;8.40;99.90
12655;DHT22;6392;44.644;11.448;2024-02-26T07:21:24;8.40;99.90
12655;DHT22;6392;44.644;11.448;2024-02-26T07:23:51;8.40;99.90
12655;DHT22;6392;44.644;11.448;2024-02-26T07:26:18;8.40;99.90
12655;DHT22;6392;44.644;11.448;2024-02-26T07:28:45;8.40;99.90
12655;DHT22;6392;44.644;11.448;2024-02-26T07:31:13;8.40;99.90
12655;DHT22;6392;44.644;11.448;2024-02-26T07:33:40;8.50;99.90
12655;DHT22;6392;44.644;11.448;2024-02-26T07:36:07;8.50;99.90
12655;DHT22;6392;44.644;11.448;2024-02-26T07:38:34;8.50;99.90
12655;DHT22;6392;44.644;11.448;2024-02-26T07:41:02;8.50;99.90
12655;DHT22;6392;44.644;11.448;2024-02-26T07:43:29;8.50;99.90
12655;DHT22;6392;44.644;11.448;2024-02-26T07:45:57;8.60;99.90
12655;DHT22;6392;44.644;11.448;2024-02-26T07:48:25;8.60;99.90
12655;DHT22;6392;44.644;11.448;2024-02-26T07:50:52;8.60;99.90
12655;DHT22;6392;44.644;11.448;2024-02-26T07:53:19;8.70;99.90
12655;DHT22;6392;44.644;11.448;2024-02-26T07:55:46;8.70;99.90
12655;DHT22;6392;44.644;11.448;2024-02-26T07:58:14;8.70;99.90
12655;DHT22;6392;44.644;11.448;2024-02-26T08:00:40;8.70;99.90
12655;DHT22;6392;44.644;11.448;2024-02-26T08:03:08;8.70;99.90
12655;DHT22;6392;44.644;11.448;2024-02-26T08:05:36;8.80;99.90
12655;DHT22;6392;44.644;11.448;2024-02-26T08:08:06;8.80;99.90
12655;DHT22;6392;44.644;11.448;2024-02-26T08:10:33;8.80;99.90
12655;DHT22;6392;44.644;11.448;2024-02-26T08:13:00;8.80;99.90
12655;DHT22;6392;44.644;11.448;2024-02-26T08:15:31;8.80;99.90
12655;DHT22;6392;44.644;11.448;2024-02-26T08:18:00;8.80;99.90
12655;DHT22;6392;44.644;11.448;2024-02-26T08:20:28;8.80;99.90
12655;DHT22;6392;44.644;11.448;2024-02-26T08:22:56;8.90;99.90
12655;DHT22;6392;44.644;11.448;2024-02-26T08:25:23;9.00;99.90
12655;DHT22;6392;44.644;11.448;2024-02-26T08:27:51;9.00;99.90
12655;DHT22;6392;44.644;11.448;2024-02-26T08:30:19;9.00;99.90
12655;DHT22;6392;44.644;11.448;2024-02-26T08:32:47;9.00;99.90
12655;DHT22;6392;44.644;11.448;2024-02-26T08:35:14;9.00;99.90
12655;DHT22;6392;44.644;11.448;2024-02-26T08:37:44;9.10;99.90
12655;DHT22;6392;44.644;11.448;2024-02-26T08:40:13;9.10;99.90
12655;DHT22;6392;44.644;11.448;2024-02-26T08:42:40;9.20;99.90
12655;DHT22;6392;44.644;11.448;2024-02-26T08:45:08;9.30;99.90
12655;DHT22;6392;44.644;11.448;2024-02-26T08:47:35;9.30;99.90
12655;DHT22;6392;44.644;11.448;2024-02-26T08:50:03;9.30;99.90
12655;DHT22;6392;44.644;11.448;2024-02-26T08:52:30;9.40;99.90
12655;DHT22;6392;44.644;11.448;2024-02-26T08:54:57;9.40;99.90
12655;DHT22;6392;44.644;11.448;2024-02-26T08:57:25;9.50;99.90
12655;DHT22;6392;44.644;11.448;2024-02-26T08:59:53;9.50;99.90
12655;DHT22;6392;44.644;11.448;2024-02-26T09:02:20;9.60;99.90
12655;DHT22;6392;44.644;11.448;2024-02-26T09:04:47;9.70;99.90
12655;DHT22;6392;44.644;11.448;2024-02-26T09:07:16;9.80;99.90
12655;DHT22;6392;44.644;11.448;2024-02-26T09:09:43;9.90;99.90
12655;DHT22;6392;44.644;11.448;2024-02-26T09:12:10;9.90;99.90
12655;DHT22;6392;44.644;11.448;2024-02-26T09:14:39;10.00;99.90
12655;DHT22;6392;44.644;11.448;2024-02-26T09:17:06;10.00;99.90
12655;DHT22;6392;44.644;11.448;2024-02-26T09:19:33;10.10;99.90
12655;DHT22;6392;44.644;11.448;2024-02-26T09:22:00;10.20;99.90
12655;DHT22;6392;44.644;11.448;2024-02-26T09:24:27;10.30;99.90
12655;DHT22;6392;44.644;11.448;2024-02-26T09:26:54;10.40;99.90
12655;DHT22;6392;44.644;11.448;2024-02-26T09:29:21;10.40;99.90
12655;DHT22;6392;44.644;11.448;2024-02-26T09:31:50;10.50;99.90
12655;DHT22;6392;44.644;11.448;2024-02-26T09:34:17;10.50;99.90
12655;DHT22;6392;44.644;11.448;2024-02-26T09:36:44;10.60;99.90
12655;DHT22;6392;44.644;11.448;2024-02-26T09:39:11;10.60;99.90
12655;DHT22;6392;44.644;11.448;2024-02-26T09:41:40;10.60;99.90
12655;DHT22;6392;44.644;11.448;2024-02-26T09:44:07;10.60;99.90
12655;DHT22;6392;44.644;11.448;2024-02-26T09:46:36;10.70;99.90
12655;DHT22;6392;44.644;11.448;2024-02-26T09:49:05;10.70;99.90
12655;DHT22;6392;44.644;11.448;2024-02-26T09:51:33;10.80;99.90
12655;DHT22;6392;44.644;11.448;2024-02-26T09:54:00;10.80;99.90
12655;DHT22;6392;44.644;11.448;2024-02-26T09:56:27;10.80;99.90
12655;DHT22;6392;44.644;11.448;2024-02-26T09:58:56;10.80;99.90
12655;DHT22;6392;44.644;11.448;2024-02-26T10:01:24;10.80;99.90
12655;DHT22;6392;44.644;11.448;2024-02-26T10:03:54;10.90;99.90
12655;DHT22;6392;44.644;11.448;2024-02-26T10:06:24;10.90;99.90
12655;DHT22;6392;44.644;11.448;2024-02-26T10:08:54;10.90;99.90
12655;DHT22;6392;44.644;11.448;2024-02-26T10:11:22;11.00;99.90
12655;DHT22;6392;44.644;11.448;2024-02-26T10:13:49;11.00;99.90
12655;DHT22;6392;44.644;11.448;2024-02-26T10:16:16;11.10;99.90
12655;DHT22;6392;44.644;11.448;2024-02-26T10:18:47;11.10;99.90
12655;DHT22;6392;44.644;11.448;2024-02-26T10:21:16;11.20;99.90
12655;DHT22;6392;44.644;11.448;2024-02-26T10:23:46;11.30;99.90
12655;DHT22;6392;44.644;11.448;2024-02-26T10:26:15;11.30;99.90
12655;DHT22;6392;44.644;11.448;2024-02-26T10:28:43;11.40;99.90
12655;DHT22;6392;44.644;11.448;2024-02-26T10:31:10;11.40;99.90
12655;DHT22;6392;44.644;11.448;2024-02-26T10:33:38;11.50;99.90
12655;DHT22;6392;44.644;11.448;2024-02-26T10:36:06;11.50;99.90
12655;DHT22;6392;44.644;11.448;2024-02-26T10:38:34;11.50;99.90
12655;DHT22;6392;44.644;11.448;2024-02-26T10:41:03;11.50;99.90
12655;DHT22;6392;44.644;11.448;2024-02-26T10:43:31;11.50;99.90
12655;DHT22;6392;44.644;11.448;2024-02-26T10:45:58;11.50;99.90
12655;DHT22;6392;44.644;11.448;2024-02-26T10:48:25;11.50;99.90
12655;DHT22;6392;44.644;11.448;2024-02-26T10:50:52;11.40;99.90
12655;DHT22;6392;44.644;11.448;2024-02-26T10:53:21;11.50;99.90
12655;DHT22;6392;44.644;11.448;2024-02-26T10:55:51;11.50;99.90
12655;DHT22;6392;44.644;11.448;2024-02-26T10:58:21;11.50;99.90
12655;DHT22;6392;44.644;11.448;2024-02-26T11:00:49;11.50;99.90
12655;DHT22;6392;44.644;11.448;2024-02-26T11:03:17;11.50;99.90
12655;DHT22;6392;44.644;11.448;2024-02-26T11:05:47;11.60;99.90
12655;DHT22;6392;44.644;11.448;2024-02-26T11:08:15;11.60;99.90
12655;DHT22;6392;44.644;11.448;2024-02-26T11:10:42;11.60;99.90
12655;DHT22;6392;44.644;11.448;2024-02-26T11:13:12;11.70;99.90
12655;DHT22;6392;44.644;11.448;2024-02-26T11:15:43;11.70;99.90
12655;DHT22;6392;44.644;11.448;2024-02-26T11:18:12;11.80;99.90
12655;DHT22;6392;44.644;11.448;2024-02-26T11:20:40;11.80;99.90
12655;DHT22;6392;44.644;11.448;2024-02-26T11:23:08;11.80;99.90
12655;DHT22;6392;44.644;11.448;2024-02-26T11:25:35;11.90;99.90
12655;DHT22;6392;44.644;11.448;2024-02-26T11:28:14;12.00;99.90
12655;DHT22;6392;44.644;11.448;2024-02-26T11:30:45;12.00;99.90
12655;DHT22;6392;44.644;11.448;2024-02-26T11:33:14;12.00;99.90
12655;DHT22;6392;44.644;11.448;2024-02-26T11:35:42;12.00;99.90
12655;DHT22;6392;44.644;11.448;2024-02-26T11:38:17;12.00;99.90
12655;DHT22;6392;44.644;11.448;2024-02-26T11:40:46;12.00;99.90
12655;DHT22;6392;44.644;11.448;2024-02-26T11:43:14;12.00;99.90
12655;DHT22;6392;44.644;11.448;2024-02-26T11:45:52;12.00;99.90
12655;DHT22;6392;44.644;11.448;2024-02-26T11:48:21;12.00;99.90
12655;DHT22;6392;44.644;11.448;2024-02-26T11:50:49;12.00;99.90
12655;DHT22;6392;44.644;11.448;2024-02-26T11:53:21;12.00;99.90
12655;DHT22;6392;44.644;11.448;2024-02-26T11:55:48;12.00;99.90
12655;DHT22;6392;44.644;11.448;2024-02-26T11:58:35;12.00;99.90
12655;DHT22;6392;44.644;11.448;2024-02-26T12:01:36;12.00;99.90
12655;DHT22;6392;44.644;11.448;2024-02-26T12:04:05;12.00;99.90
12655;DHT22;6392;44.644;11.448;2024-02-26T12:06:43;12.00;99.90
12655;DHT22;6392;44.644;11.448;2024-02-26T12:09:11;12.00;99.90
12655;DHT22;6392;44.644;11.448;2024-02-26T12:11:39;12.00;99.90
12655;DHT22;6392;44.644;11.448;2024-02-26T12:14:08;12.10;99.90
12655;DHT22;6392;44.644;11.448;2024-02-26T12:16:37;12.30;99.90
12655;DHT22;6392;44.644;11.448;2024-02-26T12:19:05;12.30;99.90
12655;DHT22;6392;44.644;11.448;2024-02-26T12:21:35;12.50;99.90
12655;DHT22;6392;44.644;11.448;2024-02-26T12:24:11;12.60;99.90
12655;DHT22;6392;44.644;11.448;2024-02-26T12:26:39;12.60;99.90
12655;DHT22;6392;44.644;11.448;2024-02-26T12:29:06;12.70;99.90
12655;DHT22;6392;44.644;11.448;2024-02-26T12:31:33;12.80;99.90
12655;DHT22;6392;44.644;11.448;2024-02-26T12:34:04;12.90;99.90
12655;DHT22;6392;44.644;11.448;2024-02-26T12:36:32;12.80;99.90
12655;DHT22;6392;44.644;11.448;2024-02-26T12:39:00;12.80;99.90
12655;DHT22;6392;44.644;11.448;2024-02-26T12:41:27;12.90;99.90
12655;DHT22;6392;44.644;11.448;2024-02-26T12:43:56;12.90;99.90
12655;DHT22;6392;44.644;11.448;2024-02-26T12:46:24;13.00;99.90
12655;DHT22;6392;44.644;11.448;2024-02-26T12:48:51;13.00;99.90
12655;DHT22;6392;44.644;11.448;2024-02-26T12:51:21;13.00;99.90
12655;DHT22;6392;44.644;11.448;2024-02-26T12:53:49;13.00;99.90
12655;DHT22;6392;44.644;11.448;2024-02-26T12:56:18;13.10;99.90
12655;DHT22;6392;44.644;11.448;2024-02-26T12:58:45;13.00;99.90
12655;DHT22;6392;44.644;11.448;2024-02-26T13:01:15;13.00;99.90
12655;DHT22;6392;44.644;11.448;2024-02-26T13:03:44;13.00;99.90
12655;DHT22;6392;44.644;11.448;2024-02-26T13:06:11;12.90;99.90
12655;DHT22;6392;44.644;11.448;2024-02-26T13:08:40;12.90;99.90
12655;DHT22;6392;44.644;11.448;2024-02-26T13:11:07;12.90;99.90
12655;DHT22;6392;44.644;11.448;2024-02-26T13:13:35;12.80;99.90
12655;DHT22;6392;44.644;11.448;2024-02-26T13:16:03;12.80;99.90
12655;DHT22;6392;44.644;11.448;2024-02-26T13:18:32;12.80;99.90
12655;DHT22;6392;44.644;11.448;2024-02-26T13:21:09;12.90;99.90
12655;DHT22;6392;44.644;11.448;2024-02-26T13:23:37;12.90;99.90
12655;DHT22;6392;44.644;11.448;2024-02-26T13:26:06;12.90;99.90
12655;DHT22;6392;44.644;11.448;2024-02-26T13:28:34;12.80;99.90
12655;DHT22;6392;44.644;11.448;2024-02-26T13:31:01;12.80;99.90
12655;DHT22;6392;44.644;11.448;2024-02-26T13:33:30;12.70;99.90
12655;DHT22;6392;44.644;11.448;2024-02-26T13:35:58;12.70;99.90
12655;DHT22;6392;44.644;11.448;2024-02-26T13:38:26;12.60;99.90
12655;DHT22;6392;44.644;11.448;2024-02-26T13:40:54;12.50;99.90
12655;DHT22;6392;44.644;11.448;2024-02-26T13:43:23;12.50;99.90
12655;DHT22;6392;44.644;11.448;2024-02-26T13:45:50;12.40;99.90
12655;DHT22;6392;44.644;11.448;2024-02-26T13:48:17;12.40;99.90
12655;DHT22;6392;44.644;11.448;2024-02-26T13:50:44;12.30;99.90
12655;DHT22;6392;44.644;11.448;2024-02-26T13:53:12;12.30;99.90
12655;DHT22;6392;44.644;11.448;2024-02-26T13:55:40;12.40;99.90
12655;DHT22;6392;44.644;11.448;2024-02-26T13:58:09;12.50;99.90
12655;DHT22;6392;44.644;11.448;2024-02-26T14:00:40;12.50;99.90
12655;DHT22;6392;44.644;11.448;2024-02-26T14:03:07;12.70;99.90
12655;DHT22;6392;44.644;11.448;2024-02-26T14:05:34;12.80;99.90
12655;DHT22;6392;44.644;11.448;2024-02-26T14:08:02;12.80;99.90
12655;DHT22;6392;44.644;11.448;2024-02-26T14:10:29;12.90;99.90
12655;DHT22;6392;44.644;11.448;2024-02-26T14:12:57;13.00;99.90
12655;DHT22;6392;44.644;11.448;2024-02-26T14:15:25;13.10;99.90
12655;DHT22;6392;44.644;11.448;2024-02-26T14:17:54;13.10;99.90
12655;DHT22;6392;44.644;11.448;2024-02-26T14:20:22;13.10;99.90
12655;DHT22;6392;44.644;11.448;2024-02-26T14:22:49;13.10;99.90
12655;DHT22;6392;44.644;11.448;2024-02-26T14:25:17;13.10;99.90
12655;DHT22;6392;44.644;11.448;2024-02-26T14:27:45;13.10;99.90
12655;DHT22;6392;44.644;11.448;2024-02-26T14:30:12;13.00;99.90
12655;DHT22;6392;44.644;11.448;2024-02-26T14:32:39;13.00;99.90
12655;DHT22;6392;44.644;11.448;2024-02-26T14:35:08;13.10;99.90
12655;DHT22;6392;44.644;11.448;2024-02-26T14:37:36;13.10;99.90
12655;DHT22;6392;44.644;11.448;2024-02-26T14:40:03;13.10;99.90
12655;DHT22;6392;44.644;11.448;2024-02-26T14:42:31;13.10;99.90
12655;DHT22;6392;44.644;11.448;2024-02-26T14:44:58;13.10;99.90
12655;DHT22;6392;44.644;11.448;2024-02-26T14:47:25;13.30;99.90
12655;DHT22;6392;44.644;11.448;2024-02-26T14:49:52;13.30;99.90
12655;DHT22;6392;44.644;11.448;2024-02-26T14:52:20;13.30;99.90
12655;DHT22;6392;44.644;11.448;2024-02-26T14:54:48;13.30;99.90
12655;DHT22;6392;44.644;11.448;2024-02-26T14:57:16;13.30;99.90
12655;DHT22;6392;44.644;11.448;2024-02-26T14:59:44;13.30;99.90
12655;DHT22;6392;44.644;11.448;2024-02-26T15:02:11;13.30;99.90
12655;DHT22;6392;44.644;11.448;2024-02-26T15:04:38;13.40;99.90
12655;DHT22;6392;44.644;11.448;2024-02-26T15:07:05;13.50;99.90
12655;DHT22;6392;44.644;11.448;2024-02-26T15:09:33;13.50;99.90
12655;DHT22;6392;44.644;11.448;2024-02-26T15:12:01;13.50;99.90
12655;DHT22;6392;44.644;11.448;2024-02-26T15:14:28;13.50;99.90
12655;DHT22;6392;44.644;11.448;2024-02-26T15:16:55;13.40;99.90
12655;DHT22;6392;44.644;11.448;2024-02-26T15:19:22;13.30;99.90
12655;DHT22;6392;44.644;11.448;2024-02-26T15:21:49;13.20;99.90
12655;DHT22;6392;44.644;11.448;2024-02-26T15:24:17;13.10;99.90
12655;DHT22;6392;44.644;11.448;2024-02-26T15:26:46;13.00;99.90
12655;DHT22;6392;44.644;11.448;2024-02-26T15:29:13;13.00;99.90
12655;DHT22;6392;44.644;11.448;2024-02-26T15:31:40;12.90;99.90
12655;DHT22;6392;44.644;11.448;2024-02-26T15:34:07;12.90;99.90
12655;DHT22;6392;44.644;11.448;2024-02-26T15:36:34;12.80;99.90
12655;DHT22;6392;44.644;11.448;2024-02-26T15:39:02;12.80;99.90
12655;DHT22;6392;44.644;11.448;2024-02-26T15:41:30;12.70;99.90
12655;DHT22;6392;44.644;11.448;2024-02-26T15:43:58;12.70;99.90